createdAt,value
2023-05-06T00:00:34.116Z,99232.00
2023-05-06T00:01:34.173Z,99231.00
2023-05-06T00:02:34.281Z,99229.00
2023-05-06T00:03:34.359Z,99234.00
2023-05-06T00:04:34.277Z,99233.00
2023-05-06T00:05:34.191Z,99229.00
2023-05-06T00:06:34.318Z,99230.00
2023-05-06T00:07:34.211Z,99229.00
2023-05-06T00:08:34.227Z,99230.00
2023-05-06T00:09:34.268Z,99226.00
2023-05-06T00:10:34.225Z,99225.00
2023-05-06T00:11:34.244Z,99231.00
2023-05-06T00:12:34.266Z,99230.00
2023-05-06T00:13:34.263Z,99231.00
2023-05-06T00:14:34.309Z,99231.00
2023-05-06T00:15:34.308Z,99232.00
2023-05-06T00:16:34.337Z,99223.00
2023-05-06T00:17:34.347Z,99227.00
2023-05-06T00:18:34.311Z,99222.00
2023-05-06T00:19:34.343Z,99218.00
2023-05-06T00:20:34.379Z,99224.00
2023-05-06T00:21:34.476Z,99224.00
2023-05-06T00:22:34.407Z,99221.00
2023-05-06T00:23:34.413Z,99215.00
2023-05-06T00:24:34.450Z,99214.00
2023-05-06T00:25:34.469Z,99214.00
2023-05-06T00:26:34.485Z,99216.00
2023-05-06T00:27:34.497Z,99213.00
2023-05-06T00:28:34.526Z,99210.00
2023-05-06T00:29:34.566Z,99213.00
2023-05-06T00:30:34.539Z,99212.00
2023-05-06T00:31:34.693Z,99209.00
2023-05-06T00:32:34.604Z,99212.00
2023-05-06T00:33:34.549Z,99209.00
2023-05-06T00:34:34.590Z,99208.00
2023-05-06T00:35:34.608Z,99212.00
2023-05-06T00:36:34.630Z,99216.00
2023-05-06T00:37:34.671Z,99210.00
2023-05-06T00:38:34.761Z,99211.00
2023-05-06T00:39:34.671Z,99212.00
2023-05-06T00:40:34.689Z,99207.00
2023-05-06T00:41:34.674Z,99213.00
2023-05-06T00:42:34.697Z,99209.00
2023-05-06T00:43:34.683Z,99204.00
2023-05-06T00:44:34.721Z,99206.00
2023-05-06T00:45:34.700Z,99211.00
2023-05-06T00:46:34.686Z,99207.00
2023-05-06T00:47:34.778Z,99212.00
2023-05-06T00:48:34.710Z,99212.00
2023-05-06T00:49:34.736Z,99209.00
2023-05-06T00:50:34.778Z,99207.00
2023-05-06T00:51:34.737Z,99206.00
2023-05-06T00:52:34.768Z,99202.00
2023-05-06T00:53:34.774Z,99202.00
2023-05-06T00:54:34.913Z,99204.00
2023-05-06T00:55:34.798Z,99202.00
2023-05-06T00:56:34.784Z,99201.00
2023-05-06T00:57:34.823Z,99206.00
2023-05-06T00:58:34.857Z,99204.00
2023-05-06T00:59:34.831Z,99199.00
2023-05-06T01:00:34.841Z,99198.00
2023-05-06T01:01:35.099Z,99198.00
2023-05-06T01:02:46.366Z,99196.00
2023-05-06T01:03:34.965Z,99194.00
2023-05-06T01:04:34.959Z,99193.00
2023-05-06T01:05:35.147Z,99195.00
2023-05-06T01:06:34.922Z,99195.00
2023-05-06T01:07:34.941Z,99198.00
2023-05-06T01:08:34.920Z,99201.00
2023-05-06T01:09:35.165Z,99195.00
2023-05-06T01:10:34.969Z,99196.00
2023-05-06T01:11:34.981Z,99198.00
2023-05-06T01:12:35.024Z,99199.00
2023-05-06T01:13:35.019Z,99197.00
2023-05-06T01:14:35.043Z,99198.00
2023-05-06T01:15:35.019Z,99199.00
2023-05-06T01:16:35.123Z,99202.00
2023-05-06T01:17:35.082Z,99202.00
2023-05-06T01:18:35.075Z,99207.00
2023-05-06T01:19:35.093Z,99204.00
2023-05-06T01:20:35.122Z,99203.00
2023-05-06T01:21:35.145Z,99205.00
2023-05-06T01:22:35.143Z,99207.00
2023-05-06T01:23:35.186Z,99205.00
2023-05-06T01:24:35.213Z,99207.00
2023-05-06T01:25:35.232Z,99211.00
2023-05-06T01:26:35.360Z,99213.00
2023-05-06T01:27:35.273Z,99209.00
2023-05-06T01:28:35.280Z,99205.00
2023-05-06T01:29:35.313Z,99205.00
2023-05-06T01:30:35.326Z,99204.00
2023-05-06T01:31:35.512Z,99205.00
2023-05-06T01:32:35.374Z,99201.00
2023-05-06T01:33:35.405Z,99202.00
2023-05-06T01:34:35.421Z,99201.00
2023-05-06T01:35:35.438Z,99197.00
2023-05-06T01:36:35.436Z,99200.00
2023-05-06T01:37:35.463Z,99205.00
2023-05-06T01:38:35.489Z,99197.00
2023-05-06T01:39:35.521Z,99201.00
2023-05-06T01:40:35.516Z,99198.00
2023-05-06T01:41:35.520Z,99194.00
2023-05-06T01:42:35.771Z,99197.00
2023-05-06T01:43:35.557Z,99203.00
2023-05-06T01:44:35.587Z,99205.00
2023-05-06T01:45:35.568Z,99203.00
2023-05-06T01:46:35.670Z,99205.00
2023-05-06T01:47:35.624Z,99201.00
2023-05-06T01:48:35.647Z,99199.00
2023-05-06T01:49:35.657Z,99201.00
2023-05-06T01:50:35.677Z,99201.00
2023-05-06T01:51:35.743Z,99208.00
2023-05-06T01:52:35.694Z,99207.00
2023-05-06T01:53:35.709Z,99207.00
2023-05-06T01:54:35.789Z,99208.00
2023-05-06T01:55:35.791Z,99212.00
2023-05-06T01:56:35.732Z,99210.00
2023-05-06T01:57:35.850Z,99212.00
2023-05-06T01:58:35.817Z,99209.00
2023-05-06T01:59:35.796Z,99214.00
2023-05-06T02:00:35.800Z,99214.00
2023-05-06T02:01:35.851Z,99214.00
2023-05-06T02:02:35.948Z,99213.00
2023-05-06T02:03:35.912Z,99212.00
2023-05-06T02:04:35.843Z,99217.00
2023-05-06T02:05:35.856Z,99214.00
2023-05-06T02:06:35.865Z,99218.00
2023-05-06T02:07:35.884Z,99215.00
2023-05-06T02:08:35.906Z,99219.00
2023-05-06T02:09:35.930Z,99215.00
2023-05-06T02:10:35.911Z,99220.00
2023-05-06T02:11:35.941Z,99219.00
2023-05-06T02:12:35.961Z,99220.00
2023-05-06T02:13:35.986Z,99210.00
2023-05-06T02:14:36.037Z,99218.00
2023-05-06T02:15:36.032Z,99218.00
2023-05-06T02:16:36.143Z,99220.00
2023-05-06T02:17:36.066Z,99217.00
2023-05-06T02:18:36.088Z,99219.00
2023-05-06T02:19:36.121Z,99216.00
2023-05-06T02:20:36.133Z,99215.00
2023-05-06T02:21:36.162Z,99220.00
2023-05-06T02:22:36.167Z,99215.00
2023-05-06T02:23:36.204Z,99216.00
2023-05-06T02:24:36.241Z,99221.00
2023-05-06T02:25:36.247Z,99219.00
2023-05-06T02:26:36.277Z,99222.00
2023-05-06T02:27:36.303Z,99221.00
2023-05-06T02:28:36.321Z,99225.00
2023-05-06T02:29:36.342Z,99220.00
2023-05-06T02:30:36.351Z,99224.00
2023-05-06T02:31:36.372Z,99221.00
2023-05-06T02:32:36.414Z,99220.00
2023-05-06T02:33:36.384Z,99221.00
2023-05-06T02:34:36.432Z,99220.00
2023-05-06T02:35:36.439Z,99217.00
2023-05-06T02:36:36.461Z,99217.00
2023-05-06T02:37:36.475Z,99218.00
2023-05-06T02:38:36.499Z,99225.00
2023-05-06T02:39:36.509Z,99222.00
2023-05-06T02:40:36.496Z,99222.00
2023-05-06T02:41:36.503Z,99220.00
2023-05-06T02:42:36.549Z,99218.00
2023-05-06T02:43:36.534Z,99215.00
2023-05-06T02:44:36.552Z,99218.00
2023-05-06T02:45:36.588Z,99219.00
2023-05-06T02:46:36.693Z,99213.00
2023-05-06T02:47:36.573Z,99218.00
2023-05-06T02:48:36.566Z,99214.00
2023-05-06T02:49:36.593Z,99213.00
2023-05-06T02:50:36.582Z,99211.00
2023-05-06T02:51:36.586Z,99209.00
2023-05-06T02:52:36.600Z,99206.00
2023-05-06T02:53:36.626Z,99205.00
2023-05-06T02:54:36.648Z,99207.00
2023-05-06T02:55:36.632Z,99208.00
2023-05-06T02:56:36.663Z,99205.00
2023-05-06T02:57:36.690Z,99206.00
2023-05-06T02:58:36.701Z,99211.00
2023-05-06T02:59:36.719Z,99212.00
2023-05-06T03:00:36.722Z,99206.00
2023-05-06T03:01:36.834Z,99207.00
2023-05-06T03:02:36.890Z,99207.00
2023-05-06T03:03:36.769Z,99204.00
2023-05-06T03:04:36.822Z,99207.00
2023-05-06T03:05:36.784Z,99207.00
2023-05-06T03:06:36.825Z,99210.00
2023-05-06T03:07:36.836Z,99205.00
2023-05-06T03:08:36.857Z,99203.00
2023-05-06T03:09:36.894Z,99204.00
2023-05-06T03:10:36.902Z,99202.00
2023-05-06T03:11:36.908Z,99204.00
2023-05-06T03:12:36.932Z,99199.00
2023-05-06T03:13:36.920Z,99199.00
2023-05-06T03:14:36.940Z,99204.00
2023-05-06T03:15:36.958Z,99202.00
2023-05-06T03:16:37.036Z,99198.00
2023-05-06T03:17:36.991Z,99197.00
2023-05-06T03:18:37.060Z,99205.00
2023-05-06T03:19:36.987Z,99207.00
2023-05-06T03:20:37.000Z,99204.00
2023-05-06T03:21:37.072Z,99206.00
2023-05-06T03:22:37.048Z,99211.00
2023-05-06T03:23:37.053Z,99206.00
2023-05-06T03:24:37.059Z,99205.00
2023-05-06T03:25:37.070Z,99211.00
2023-05-06T03:26:37.065Z,99211.00
2023-05-06T03:27:37.073Z,99214.00
2023-05-06T03:28:37.084Z,99211.00
2023-05-06T03:29:37.096Z,99211.00
2023-05-06T03:30:37.081Z,99212.00
2023-05-06T03:31:37.155Z,99207.00
2023-05-06T03:32:37.135Z,99208.00
2023-05-06T03:33:37.126Z,99198.00
2023-05-06T03:34:37.155Z,99208.00
2023-05-06T03:35:37.159Z,99206.00
2023-05-06T03:36:37.185Z,99207.00
2023-05-06T03:37:37.194Z,99206.00
2023-05-06T03:38:37.236Z,99210.00
2023-05-06T03:39:37.220Z,99207.00
2023-05-06T03:40:37.224Z,99206.00
2023-05-06T03:41:37.232Z,99207.00
2023-05-06T03:42:37.261Z,99208.00
2023-05-06T03:43:37.282Z,99211.00
2023-05-06T03:44:37.280Z,99217.00
2023-05-06T03:45:37.293Z,99214.00
2023-05-06T03:46:37.401Z,99217.00
2023-05-06T03:47:37.324Z,99218.00
2023-05-06T03:48:37.278Z,99221.00
2023-05-06T03:49:37.326Z,99221.00
2023-05-06T03:50:37.316Z,99220.00
2023-05-06T03:51:37.335Z,99220.00
2023-05-06T03:52:37.322Z,99224.00
2023-05-06T03:53:37.305Z,99224.00
2023-05-06T03:54:37.327Z,99219.00
2023-05-06T03:55:37.332Z,99225.00
2023-05-06T03:56:37.347Z,99221.00
2023-05-06T03:57:37.421Z,99222.00
2023-05-06T03:58:37.348Z,99225.00
2023-05-06T03:59:37.374Z,99227.00
2023-05-06T04:00:37.398Z,99223.00
2023-05-06T04:01:37.495Z,99225.00
2023-05-06T04:02:37.593Z,99218.00
2023-05-06T04:03:37.484Z,99224.00
2023-05-06T04:04:37.463Z,99222.00
2023-05-06T04:05:37.483Z,99225.00
2023-05-06T04:06:37.601Z,99231.00
2023-05-06T04:07:37.527Z,99229.00
2023-05-06T04:08:37.535Z,99229.00
2023-05-06T04:09:37.542Z,99229.00
2023-05-06T04:10:37.550Z,99229.00
2023-05-06T04:11:37.540Z,99231.00
2023-05-06T04:12:37.630Z,99232.00
2023-05-06T04:13:37.567Z,99232.00
2023-05-06T04:14:37.582Z,99235.00
2023-05-06T04:15:37.615Z,99237.00
2023-05-06T04:16:37.726Z,99238.00
2023-05-06T04:17:37.715Z,99237.00
2023-05-06T04:18:37.652Z,99243.00
2023-05-06T04:19:37.641Z,99237.00
2023-05-06T04:20:37.673Z,99233.00
2023-05-06T04:21:37.686Z,99245.00
2023-05-06T04:22:37.726Z,99239.00
2023-05-06T04:23:37.695Z,99246.00
2023-05-06T04:24:37.724Z,99243.00
2023-05-06T04:25:37.726Z,99241.00
2023-05-06T04:26:37.754Z,99244.00
2023-05-06T04:27:37.795Z,99246.00
2023-05-06T04:28:37.798Z,99243.00
2023-05-06T04:29:37.773Z,99241.00
2023-05-06T04:30:37.778Z,99245.00
2023-05-06T04:31:37.888Z,99243.00
2023-05-06T04:32:37.843Z,99241.00
2023-05-06T04:33:37.846Z,99241.00
2023-05-06T04:34:37.871Z,99246.00
2023-05-06T04:35:37.894Z,99250.00
2023-05-06T04:36:39.985Z,99246.00
2023-05-06T04:37:37.935Z,99250.00
2023-05-06T04:38:38.014Z,99249.00
2023-05-06T04:39:37.951Z,99248.00
2023-05-06T04:40:37.915Z,99251.00
2023-05-06T04:41:37.931Z,99251.00
2023-05-06T04:42:37.997Z,99251.00
2023-05-06T04:43:37.965Z,99249.00
2023-05-06T04:44:37.990Z,99255.00
2023-05-06T04:45:38.121Z,99254.00
2023-05-06T04:46:38.040Z,99259.00
2023-05-06T04:47:38.084Z,99254.00
2023-05-06T04:48:38.057Z,99257.00
2023-05-06T04:49:38.079Z,99256.00
2023-05-06T04:50:38.088Z,99255.00
2023-05-06T04:51:38.318Z,99258.00
2023-05-06T04:52:38.235Z,99259.00
2023-05-06T04:53:38.114Z,99263.00
2023-05-06T04:54:38.223Z,99260.00
2023-05-06T04:55:38.131Z,99260.00
2023-05-06T04:56:38.169Z,99269.00
2023-05-06T04:57:38.134Z,99267.00
2023-05-06T04:58:38.154Z,99266.00
2023-05-06T04:59:38.161Z,99268.00
2023-05-06T05:00:38.180Z,99271.00
2023-05-06T05:01:38.230Z,99272.00
2023-05-06T05:02:38.225Z,99272.00
2023-05-06T05:03:38.244Z,99273.00
2023-05-06T05:04:38.280Z,99272.00
2023-05-06T05:05:38.268Z,99268.00
2023-05-06T05:06:38.291Z,99267.00
2023-05-06T05:07:38.296Z,99273.00
2023-05-06T05:08:38.329Z,99273.00
2023-05-06T05:09:38.313Z,99276.00
2023-05-06T05:10:38.410Z,99274.00
2023-05-06T05:11:38.331Z,99275.00
2023-05-06T05:12:38.417Z,99274.00
2023-05-06T05:13:38.358Z,99271.00
2023-05-06T05:14:38.382Z,99274.00
2023-05-06T05:15:38.398Z,99271.00
2023-05-06T05:16:38.457Z,99273.00
2023-05-06T05:17:38.464Z,99270.00
2023-05-06T05:18:38.452Z,99276.00
2023-05-06T05:19:38.535Z,99277.00
2023-05-06T05:20:38.485Z,99270.00
2023-05-06T05:21:38.516Z,99272.00
2023-05-06T05:22:38.553Z,99276.00
2023-05-06T05:23:38.545Z,99277.00
2023-05-06T05:24:38.580Z,99277.00
2023-05-06T05:25:38.560Z,99278.00
2023-05-06T05:26:38.732Z,99283.00
2023-05-06T05:27:38.602Z,99279.00
2023-05-06T05:28:38.629Z,99276.00
2023-05-06T05:29:38.683Z,99282.00
2023-05-06T05:30:38.649Z,99279.00
2023-05-06T05:31:38.699Z,99283.00
2023-05-06T05:32:38.726Z,99282.00
2023-05-06T05:33:38.828Z,99282.00
2023-05-06T05:34:38.730Z,99282.00
2023-05-06T05:35:38.741Z,99282.00
2023-05-06T05:36:38.778Z,99284.00
2023-05-06T05:37:38.794Z,99284.00
2023-05-06T05:38:38.818Z,99284.00
2023-05-06T05:39:38.827Z,99288.00
2023-05-06T05:40:38.852Z,99289.00
2023-05-06T05:41:38.869Z,99286.00
2023-05-06T05:42:38.980Z,99286.00
2023-05-06T05:43:38.907Z,99287.00
2023-05-06T05:44:38.885Z,99290.00
2023-05-06T05:45:38.932Z,99287.00
2023-05-06T05:46:38.973Z,99291.00
2023-05-06T05:47:38.931Z,99291.00
2023-05-06T05:48:38.940Z,99291.00
2023-05-06T05:49:38.975Z,99290.00
2023-05-06T05:50:38.978Z,99292.00
2023-05-06T05:51:38.984Z,99292.00
2023-05-06T05:52:39.002Z,99291.00
2023-05-06T05:53:39.063Z,99292.00
2023-05-06T05:54:39.032Z,99294.00
2023-05-06T05:55:39.035Z,99286.00
2023-05-06T05:56:39.049Z,99292.00
2023-05-06T05:57:39.047Z,99291.00
2023-05-06T05:58:39.260Z,99293.00
2023-05-06T05:59:39.080Z,99293.00
2023-05-06T06:00:39.132Z,99294.00
2023-05-06T06:01:39.114Z,99293.00
2023-05-06T06:02:39.179Z,99292.00
2023-05-06T06:03:39.303Z,99295.00
2023-05-06T06:04:39.190Z,99292.00
2023-05-06T06:05:39.155Z,99293.00
2023-05-06T06:06:39.184Z,99294.00
2023-05-06T06:07:39.187Z,99295.00
2023-05-06T06:08:39.214Z,99296.00
2023-05-06T06:09:39.228Z,99299.00
2023-05-06T06:10:39.261Z,99298.00
2023-05-06T06:11:39.282Z,99297.00
2023-05-06T06:12:39.282Z,99297.00
2023-05-06T06:13:39.299Z,99297.00
2023-05-06T06:14:39.496Z,99294.00
2023-05-06T06:15:39.326Z,99294.00
2023-05-06T06:16:39.420Z,99298.00
2023-05-06T06:17:39.416Z,99296.00
2023-05-06T06:18:39.415Z,99299.00
2023-05-06T06:19:39.395Z,99298.00
2023-05-06T06:20:39.437Z,99299.00
2023-05-06T06:21:39.436Z,99300.00
2023-05-06T06:22:39.444Z,99303.00
2023-05-06T06:23:39.459Z,99301.00
2023-05-06T06:24:39.481Z,99304.00
2023-05-06T06:25:39.507Z,99299.00
2023-05-06T06:26:39.515Z,99300.00
2023-05-06T06:27:39.549Z,99301.00
2023-05-06T06:28:39.544Z,99303.00
2023-05-06T06:29:39.556Z,99303.00
2023-05-06T06:30:39.725Z,99293.00
2023-05-06T06:31:40.642Z,99297.00
2023-05-06T06:32:39.610Z,99298.00
2023-05-06T06:33:39.600Z,99299.00
2023-05-06T06:34:39.614Z,99302.00
2023-05-06T06:35:39.648Z,99299.00
2023-05-06T06:36:39.620Z,99302.00
2023-05-06T06:37:39.659Z,99301.00
2023-05-06T06:38:39.678Z,99301.00
2023-05-06T06:39:39.697Z,99301.00
2023-05-06T06:40:39.721Z,99304.00
2023-05-06T06:41:39.739Z,99298.00
2023-05-06T06:42:39.750Z,99302.00
2023-05-06T06:43:39.762Z,99303.00
2023-05-06T06:44:39.831Z,99302.00
2023-05-06T06:45:39.809Z,99299.00
2023-05-06T06:46:39.887Z,99302.00
2023-05-06T06:47:39.855Z,99303.00
2023-05-06T06:48:39.827Z,99303.00
2023-05-06T06:49:39.855Z,99305.00
2023-05-06T06:50:39.880Z,99297.00
2023-05-06T06:51:39.896Z,99304.00
2023-05-06T06:52:39.941Z,99304.00
2023-05-06T06:53:39.904Z,99303.00
2023-05-06T06:54:39.937Z,99301.00
2023-05-06T06:55:40.173Z,99303.00
2023-05-06T06:56:39.952Z,99302.00
2023-05-06T06:57:39.964Z,99305.00
2023-05-06T06:58:39.929Z,99302.00
2023-05-06T06:59:39.939Z,99300.00
2023-05-06T07:00:39.952Z,99304.00
2023-05-06T07:01:40.009Z,99303.00
2023-05-06T07:02:40.172Z,99306.00
2023-05-06T07:03:40.028Z,99308.00
2023-05-06T07:04:40.097Z,99307.00
2023-05-06T07:05:40.075Z,99309.00
2023-05-06T07:06:40.041Z,99312.00
2023-05-06T07:07:40.139Z,99314.00
2023-05-06T07:08:40.056Z,99315.00
2023-05-06T07:09:40.329Z,99317.00
2023-05-06T07:10:40.066Z,99324.00
2023-05-06T07:11:40.317Z,99319.00
2023-05-06T07:12:40.129Z,99322.00
2023-05-06T07:13:40.114Z,99325.00
2023-05-06T07:14:40.113Z,99324.00
2023-05-06T07:15:40.124Z,99327.00
2023-05-06T07:16:40.211Z,99328.00
2023-05-06T07:17:40.165Z,99324.00
2023-05-06T07:18:40.312Z,99326.00
2023-05-06T07:19:40.181Z,99324.00
2023-05-06T07:20:40.256Z,99328.00
2023-05-06T07:21:40.238Z,99328.00
2023-05-06T07:22:40.246Z,99325.00
2023-05-06T07:23:40.272Z,99329.00
2023-05-06T07:24:40.293Z,99326.00
2023-05-06T07:25:40.284Z,99324.00
2023-05-06T07:26:40.292Z,99323.00
2023-05-06T07:27:40.300Z,99325.00
2023-05-06T07:28:40.319Z,99322.00
2023-05-06T07:29:40.347Z,99319.00
2023-05-06T07:30:40.385Z,99324.00
2023-05-06T07:31:40.367Z,99325.00
2023-05-06T07:32:40.434Z,99325.00
2023-05-06T07:33:40.406Z,99324.00
2023-05-06T07:34:40.444Z,99321.00
2023-05-06T07:35:40.410Z,99322.00
2023-05-06T07:36:40.544Z,99322.00
2023-05-06T07:37:40.418Z,99318.00
2023-05-06T07:38:40.429Z,99322.00
2023-05-06T07:39:40.462Z,99322.00
2023-05-06T07:40:40.490Z,99320.00
2023-05-06T07:41:40.466Z,99321.00
2023-05-06T07:42:42.833Z,99322.00
2023-05-06T07:43:40.513Z,99320.00
2023-05-06T07:44:40.527Z,99320.00
2023-05-06T07:45:40.559Z,99322.00
2023-05-06T07:46:40.630Z,99325.00
2023-05-06T07:47:40.612Z,99326.00
2023-05-06T07:48:40.571Z,99325.00
2023-05-06T07:49:40.612Z,99328.00
2023-05-06T07:50:40.730Z,99329.00
2023-05-06T07:51:40.643Z,99325.00
2023-05-06T07:52:40.668Z,99324.00
2023-05-06T07:53:40.677Z,99325.00
2023-05-06T07:54:40.704Z,99329.00
2023-05-06T07:55:40.708Z,99322.00
2023-05-06T07:56:40.722Z,99331.00
2023-05-06T07:57:40.752Z,99331.00
2023-05-06T07:58:40.758Z,99333.00
2023-05-06T07:59:40.796Z,99331.00
2023-05-06T08:00:40.779Z,99330.00
2023-05-06T08:01:40.803Z,99328.00
2023-05-06T08:02:40.890Z,99328.00
2023-05-06T08:03:40.991Z,99331.00
2023-05-06T08:04:40.892Z,99332.00
2023-05-06T08:05:40.835Z,99332.00
2023-05-06T08:06:40.948Z,99338.00
2023-05-06T08:07:40.859Z,99339.00
2023-05-06T08:08:40.879Z,99335.00
2023-05-06T08:09:40.912Z,99336.00
2023-05-06T08:10:40.893Z,99332.00
2023-05-06T08:11:40.907Z,99333.00
2023-05-06T08:12:40.972Z,99334.00
2023-05-06T08:13:40.959Z,99330.00
2023-05-06T08:14:40.931Z,99336.00
2023-05-06T08:15:40.971Z,99337.00
2023-05-06T08:16:41.147Z,99338.00
2023-05-06T08:17:41.019Z,99340.00
2023-05-06T08:18:41.017Z,99347.00
2023-05-06T08:19:41.051Z,99345.00
2023-05-06T08:20:41.082Z,99343.00
2023-05-06T08:21:41.095Z,99346.00
2023-05-06T08:22:41.220Z,99351.00
2023-05-06T08:23:41.134Z,99351.00
2023-05-06T08:24:41.165Z,99348.00
2023-05-06T08:25:41.190Z,99351.00
2023-05-06T08:26:41.220Z,99347.00
2023-05-06T08:27:41.261Z,99351.00
2023-05-06T08:28:41.280Z,99348.00
2023-05-06T08:29:41.301Z,99351.00
2023-05-06T08:30:41.323Z,99349.00
2023-05-06T08:31:41.372Z,99350.00
2023-05-06T08:32:41.373Z,99349.00
2023-05-06T08:33:41.338Z,99351.00
2023-05-06T08:34:41.359Z,99347.00
2023-05-06T08:35:41.377Z,99354.00
2023-05-06T08:36:41.412Z,99353.00
2023-05-06T08:37:41.382Z,99353.00
2023-05-06T08:38:41.509Z,99352.00
2023-05-06T08:39:41.381Z,99353.00
2023-05-06T08:40:41.386Z,99355.00
2023-05-06T08:41:41.433Z,99351.00
2023-05-06T08:42:41.429Z,99355.00
2023-05-06T08:43:41.408Z,99354.00
2023-05-06T08:44:41.479Z,99350.00
2023-05-06T08:45:41.460Z,99351.00
2023-05-06T08:46:41.455Z,99349.00
2023-05-06T08:47:41.549Z,99349.00
2023-05-06T08:48:41.524Z,99352.00
2023-05-06T08:49:41.547Z,99351.00
2023-05-06T08:50:41.582Z,99346.00
2023-05-06T08:51:41.733Z,99348.00
2023-05-06T08:52:41.576Z,99341.00
2023-05-06T08:53:41.606Z,99346.00
2023-05-06T08:54:41.728Z,99345.00
2023-05-06T08:55:41.638Z,99349.00
2023-05-06T08:56:41.652Z,99347.00
2023-05-06T08:57:41.667Z,99348.00
2023-05-06T08:58:41.695Z,99348.00
2023-05-06T08:59:41.726Z,99349.00
2023-05-06T09:00:41.695Z,99347.00
2023-05-06T09:01:41.721Z,99347.00
2023-05-06T09:02:43.317Z,99344.00
2023-05-06T09:03:41.759Z,99341.00
2023-05-06T09:04:41.778Z,99342.00
2023-05-06T09:05:41.756Z,99346.00
2023-05-06T09:06:41.776Z,99349.00
2023-05-06T09:07:41.754Z,99348.00
2023-05-06T09:08:41.761Z,99350.00
2023-05-06T09:09:41.781Z,99344.00
2023-05-06T09:10:41.863Z,99346.00
2023-05-06T09:11:41.781Z,99345.00
2023-05-06T09:12:41.833Z,99344.00
2023-05-06T09:13:41.793Z,99346.00
2023-05-06T09:14:41.820Z,99347.00
2023-05-06T09:15:42.077Z,99349.00
2023-05-06T09:16:41.931Z,99344.00
2023-05-06T09:17:41.949Z,99344.00
2023-05-06T09:18:41.872Z,99345.00
2023-05-06T09:19:42.121Z,99346.00
2023-05-06T09:20:41.909Z,99342.00
2023-05-06T09:21:41.895Z,99344.00
2023-05-06T09:22:41.943Z,99342.00
2023-05-06T09:23:41.923Z,99345.00
2023-05-06T09:24:41.951Z,99341.00
2023-05-06T09:25:41.964Z,99346.00
2023-05-06T09:26:42.008Z,99342.00
2023-05-06T09:27:41.983Z,99334.00
2023-05-06T09:28:41.989Z,99335.00
2023-05-06T09:29:42.006Z,99337.00
2023-05-06T09:30:42.175Z,99340.00
2023-05-06T09:31:42.066Z,99337.00
2023-05-06T09:32:42.198Z,99338.00
2023-05-06T09:33:42.124Z,99337.00
2023-05-06T09:34:42.141Z,99335.00
2023-05-06T09:35:42.185Z,99339.00
2023-05-06T09:36:42.160Z,99341.00
2023-05-06T09:37:42.177Z,99338.00
2023-05-06T09:38:42.156Z,99341.00
2023-05-06T09:39:42.180Z,99331.00
2023-05-06T09:40:42.192Z,99338.00
2023-05-06T09:41:42.204Z,99336.00
2023-05-06T09:42:42.256Z,99331.00
2023-05-06T09:43:42.233Z,99334.00
2023-05-06T09:44:42.219Z,99328.00
2023-05-06T09:45:42.218Z,99336.00
2023-05-06T09:46:42.354Z,99333.00
2023-05-06T09:47:42.281Z,99334.00
2023-05-06T09:48:42.246Z,99337.00
2023-05-06T09:49:42.285Z,99331.00
2023-05-06T09:50:42.269Z,99331.00
2023-05-06T09:51:42.301Z,99331.00
2023-05-06T09:52:42.293Z,99331.00
2023-05-06T09:53:42.309Z,99332.00
2023-05-06T09:54:42.328Z,99328.00
2023-05-06T09:55:42.583Z,99325.00
2023-05-06T09:56:42.360Z,99326.00
2023-05-06T09:57:42.378Z,99328.00
2023-05-06T09:58:42.431Z,99326.00
2023-05-06T09:59:42.399Z,99327.00
2023-05-06T10:00:42.434Z,99323.00
2023-05-06T10:01:42.487Z,99321.00
2023-05-06T10:02:42.634Z,99323.00
2023-05-06T10:03:42.546Z,99321.00
2023-05-06T10:04:42.686Z,99321.00
2023-05-06T10:05:42.519Z,99320.00
2023-05-06T10:06:42.487Z,99321.00
2023-05-06T10:07:42.528Z,99320.00
2023-05-06T10:08:42.498Z,99322.00
2023-05-06T10:09:42.510Z,99322.00
2023-05-06T10:10:42.530Z,99321.00
2023-05-06T10:11:42.548Z,99319.00
2023-05-06T10:12:42.639Z,99321.00
2023-05-06T10:13:42.594Z,99316.00
2023-05-06T10:14:42.706Z,99318.00
2023-05-06T10:15:42.632Z,99320.00
2023-05-06T10:16:42.697Z,99315.00
2023-05-06T10:17:42.689Z,99316.00
2023-05-06T10:18:42.680Z,99318.00
2023-05-06T10:19:42.697Z,99315.00
2023-05-06T10:20:42.715Z,99314.00
2023-05-06T10:21:42.721Z,99314.00
2023-05-06T10:22:42.767Z,99312.00
2023-05-06T10:23:42.795Z,99313.00
2023-05-06T10:24:42.790Z,99314.00
2023-05-06T10:25:42.809Z,99315.00
2023-05-06T10:26:42.817Z,99316.00
2023-05-06T10:27:42.837Z,99314.00
2023-05-06T10:28:42.844Z,99318.00
2023-05-06T10:29:42.865Z,99310.00
2023-05-06T10:30:42.974Z,99309.00
2023-05-06T10:31:43.144Z,99308.00
2023-05-06T10:32:43.064Z,99304.00
2023-05-06T10:33:42.921Z,99306.00
2023-05-06T10:34:42.967Z,99306.00
2023-05-06T10:35:42.965Z,99302.00
2023-05-06T10:36:43.024Z,99299.00
2023-05-06T10:37:43.030Z,99300.00
2023-05-06T10:38:43.031Z,99301.00
2023-05-06T10:39:43.004Z,99301.00
2023-05-06T10:40:43.032Z,99296.00
2023-05-06T10:41:43.036Z,99299.00
2023-05-06T10:42:43.011Z,99298.00
2023-05-06T10:43:43.112Z,99298.00
2023-05-06T10:44:44.485Z,99303.00
2023-05-06T10:45:43.052Z,99299.00
2023-05-06T10:46:43.140Z,99302.00
2023-05-06T10:47:43.035Z,99304.00
2023-05-06T10:48:43.037Z,99300.00
2023-05-06T10:49:43.045Z,99296.00
2023-05-06T10:50:45.656Z,99298.00
2023-05-06T10:51:43.106Z,99295.00
2023-05-06T10:52:43.087Z,99293.00
2023-05-06T10:53:43.120Z,99299.00
2023-05-06T10:54:43.092Z,99296.00
2023-05-06T10:55:43.115Z,99293.00
2023-05-06T10:56:45.186Z,99293.00
2023-05-06T10:57:43.162Z,99293.00
2023-05-06T10:58:43.180Z,99293.00
2023-05-06T10:59:43.199Z,99293.00
2023-05-06T11:00:43.267Z,99296.00
2023-05-06T11:01:43.251Z,99289.00
2023-05-06T11:02:44.981Z,99290.00
2023-05-06T11:03:43.322Z,99291.00
2023-05-06T11:04:43.284Z,99286.00
2023-05-06T11:05:43.313Z,99284.00
2023-05-06T11:06:43.323Z,99291.00
2023-05-06T11:07:43.346Z,99283.00
2023-05-06T11:08:46.017Z,99287.00
2023-05-06T11:09:43.337Z,99286.00
2023-05-06T11:10:43.366Z,99282.00
2023-05-06T11:11:43.402Z,99281.00
2023-05-06T11:12:43.471Z,99286.00
2023-05-06T11:13:43.436Z,99279.00
2023-05-06T11:14:43.471Z,99277.00
2023-05-06T11:15:43.510Z,99284.00
2023-05-06T11:16:43.526Z,99278.00
2023-05-06T11:17:43.544Z,99280.00
2023-05-06T11:18:43.591Z,99281.00
2023-05-06T11:19:43.503Z,99281.00
2023-05-06T11:20:43.510Z,99281.00
2023-05-06T11:21:43.516Z,99279.00
2023-05-06T11:22:43.545Z,99280.00
2023-05-06T11:23:43.557Z,99280.00
2023-05-06T11:24:43.604Z,99279.00
2023-05-06T11:25:43.620Z,99278.00
2023-05-06T11:26:43.626Z,99277.00
2023-05-06T11:27:43.638Z,99277.00
2023-05-06T11:28:43.660Z,99278.00
2023-05-06T11:29:43.661Z,99279.00
2023-05-06T11:30:43.736Z,99277.00
2023-05-06T11:31:43.720Z,99279.00
2023-05-06T11:32:43.789Z,99280.00
2023-05-06T11:33:43.788Z,99274.00
2023-05-06T11:34:44.017Z,99275.00
2023-05-06T11:35:43.796Z,99279.00
2023-05-06T11:36:43.832Z,99273.00
2023-05-06T11:37:43.874Z,99276.00
2023-05-06T11:38:43.889Z,99274.00
2023-05-06T11:39:43.869Z,99271.00
2023-05-06T11:40:43.909Z,99270.00
2023-05-06T11:41:43.880Z,99268.00
2023-05-06T11:42:43.911Z,99271.00
2023-05-06T11:43:43.940Z,99269.00
2023-05-06T11:44:43.964Z,99268.00